sensor_id;sensor_type;location;lat;lon;timestamp;P1;durP1;ratioP1;P2;durP2;ratioP2
51080;SDS011;37130;55.670;37.596;2023-04-24T04:51:33;0.00;;;0.00;;
51080;SDS011;37130;55.670;37.596;2023-04-24T04:54:02;0.10;;;0.10;;
51080;SDS011;37130;55.670;37.596;2023-04-24T04:56:30;0.05;;;0.05;;
51080;SDS011;37130;55.670;37.596;2023-04-24T04:58:59;0.10;;;0.10;;
51080;SDS011;37130;55.670;37.596;2023-04-24T05:01:27;0.10;;;0.10;;
51080;SDS011;37130;55.670;37.596;2023-04-24T05:03:55;0.10;;;0.10;;
51080;SDS011;37130;55.670;37.596;2023-04-24T05:06:23;0.10;;;0.10;;
51080;SDS011;37130;55.670;37.596;2023-04-24T05:08:52;0.10;;;0.10;;
51080;SDS011;37130;55.670;37.596;2023-04-24T05:11:47;0.10;;;0.10;;
51080;SDS011;37130;55.670;37.596;2023-04-24T05:14:15;0.10;;;0.10;;
51080;SDS011;37130;55.670;37.596;2023-04-24T05:16:45;0.10;;;0.10;;
51080;SDS011;37130;55.670;37.596;2023-04-24T05:19:15;0.20;;;0.20;;
51080;SDS011;37130;55.670;37.596;2023-04-24T05:21:45;0.20;;;0.20;;
51080;SDS011;37130;55.670;37.596;2023-04-24T05:24:12;0.20;;;0.20;;
51080;SDS011;37130;55.670;37.596;2023-04-24T05:27:12;0.20;;;0.20;;
51080;SDS011;37130;55.670;37.596;2023-04-24T05:29:41;0.20;;;0.20;;
51080;SDS011;37130;55.670;37.596;2023-04-24T05:32:09;0.20;;;0.20;;
51080;SDS011;37130;55.670;37.596;2023-04-24T05:34:37;0.20;;;0.20;;
51080;SDS011;37130;55.670;37.596;2023-04-24T05:37:05;0.28;;;0.28;;
51080;SDS011;37130;55.670;37.596;2023-04-24T05:39:35;0.25;;;0.25;;
51080;SDS011;37130;55.670;37.596;2023-04-24T05:42:03;0.30;;;0.30;;
51080;SDS011;37130;55.670;37.596;2023-04-24T05:44:31;0.25;;;0.25;;
51080;SDS011;37130;55.670;37.596;2023-04-24T05:46:59;0.30;;;0.30;;
51080;SDS011;37130;55.670;37.596;2023-04-24T05:49:28;0.30;;;0.30;;
51080;SDS011;37130;55.670;37.596;2023-04-24T05:51:56;0.30;;;0.30;;
51080;SDS011;37130;55.670;37.596;2023-04-24T05:54:24;0.20;;;0.20;;
51080;SDS011;37130;55.670;37.596;2023-04-24T05:56:52;0.25;;;0.25;;
51080;SDS011;37130;55.670;37.596;2023-04-24T05:59:32;0.40;;;0.40;;
51080;SDS011;37130;55.670;37.596;2023-04-24T06:02:00;0.30;;;0.30;;
51080;SDS011;37130;55.670;37.596;2023-04-24T06:04:28;0.30;;;0.30;;
51080;SDS011;37130;55.670;37.596;2023-04-24T06:06:58;0.35;;;0.35;;
51080;SDS011;37130;55.670;37.596;2023-04-24T06:09:26;0.40;;;0.40;;
51080;SDS011;37130;55.670;37.596;2023-04-24T06:11:54;0.35;;;0.35;;
51080;SDS011;37130;55.670;37.596;2023-04-24T06:14:26;0.40;;;0.40;;
51080;SDS011;37130;55.670;37.596;2023-04-24T06:17:13;0.40;;;0.40;;
51080;SDS011;37130;55.670;37.596;2023-04-24T06:19:42;0.40;;;0.40;;
51080;SDS011;37130;55.670;37.596;2023-04-24T06:22:10;0.40;;;0.40;;
51080;SDS011;37130;55.670;37.596;2023-04-24T06:24:37;0.40;;;0.40;;
51080;SDS011;37130;55.670;37.596;2023-04-24T06:27:06;0.30;;;0.30;;
51080;SDS011;37130;55.670;37.596;2023-04-24T06:29:35;0.40;;;0.40;;
51080;SDS011;37130;55.670;37.596;2023-04-24T06:32:03;0.40;;;0.40;;
51080;SDS011;37130;55.670;37.596;2023-04-24T06:34:31;0.35;;;0.35;;
51080;SDS011;37130;55.670;37.596;2023-04-24T06:37:01;0.32;;;0.32;;
51080;SDS011;37130;55.670;37.596;2023-04-24T06:39:28;0.40;;;0.40;;
51080;SDS011;37130;55.670;37.596;2023-04-24T06:41:56;0.40;;;0.40;;
51080;SDS011;37130;55.670;37.596;2023-04-24T06:44:24;0.40;;;0.40;;
51080;SDS011;37130;55.670;37.596;2023-04-24T06:46:51;0.40;;;0.40;;
51080;SDS011;37130;55.670;37.596;2023-04-24T06:49:19;0.50;;;0.50;;
51080;SDS011;37130;55.670;37.596;2023-04-24T06:51:47;0.60;;;0.60;;
51080;SDS011;37130;55.670;37.596;2023-04-24T06:54:14;0.60;;;0.60;;
51080;SDS011;37130;55.670;37.596;2023-04-24T06:56:42;0.60;;;0.60;;
51080;SDS011;37130;55.670;37.596;2023-04-24T06:59:12;0.55;;;0.55;;
51080;SDS011;37130;55.670;37.596;2023-04-24T07:01:39;0.60;;;0.60;;
51080;SDS011;37130;55.670;37.596;2023-04-24T07:04:07;0.60;;;0.60;;
51080;SDS011;37130;55.670;37.596;2023-04-24T07:06:35;0.47;;;0.47;;
51080;SDS011;37130;55.670;37.596;2023-04-24T07:09:04;0.60;;;0.60;;
51080;SDS011;37130;55.670;37.596;2023-04-24T07:11:32;0.63;;;0.63;;
51080;SDS011;37130;55.670;37.596;2023-04-24T07:14:01;0.70;;;0.70;;
51080;SDS011;37130;55.670;37.596;2023-04-24T07:16:28;0.70;;;0.70;;
51080;SDS011;37130;55.670;37.596;2023-04-24T07:18:56;0.60;;;0.60;;
51080;SDS011;37130;55.670;37.596;2023-04-24T07:21:24;0.73;;;0.73;;
51080;SDS011;37130;55.670;37.596;2023-04-24T07:23:52;0.63;;;0.63;;
51080;SDS011;37130;55.670;37.596;2023-04-24T07:26:20;0.70;;;0.70;;
51080;SDS011;37130;55.670;37.596;2023-04-24T07:28:48;0.70;;;0.70;;
51080;SDS011;37130;55.670;37.596;2023-04-24T07:31:15;0.70;;;0.70;;
51080;SDS011;37130;55.670;37.596;2023-04-24T07:33:43;0.60;;;0.60;;
51080;SDS011;37130;55.670;37.596;2023-04-24T07:36:11;0.60;;;0.60;;
51080;SDS011;37130;55.670;37.596;2023-04-24T07:38:42;0.50;;;0.50;;
51080;SDS011;37130;55.670;37.596;2023-04-24T07:41:12;0.50;;;0.50;;
51080;SDS011;37130;55.670;37.596;2023-04-24T07:43:40;0.60;;;0.60;;
51080;SDS011;37130;55.670;37.596;2023-04-24T07:46:08;0.45;;;0.45;;
51080;SDS011;37130;55.670;37.596;2023-04-24T07:48:36;0.50;;;0.50;;
51080;SDS011;37130;55.670;37.596;2023-04-24T07:51:04;0.50;;;0.50;;
51080;SDS011;37130;55.670;37.596;2023-04-24T07:53:31;0.50;;;0.50;;
51080;SDS011;37130;55.670;37.596;2023-04-24T07:55:59;0.50;;;0.50;;
51080;SDS011;37130;55.670;37.596;2023-04-24T07:58:27;0.50;;;0.50;;
51080;SDS011;37130;55.670;37.596;2023-04-24T08:00:54;0.40;;;0.40;;
51080;SDS011;37130;55.670;37.596;2023-04-24T08:03:22;0.50;;;0.50;;
51080;SDS011;37130;55.670;37.596;2023-04-24T08:05:51;0.50;;;0.50;;
51080;SDS011;37130;55.670;37.596;2023-04-24T08:08:20;0.47;;;0.47;;
51080;SDS011;37130;55.670;37.596;2023-04-24T08:10:49;0.57;;;0.57;;
51080;SDS011;37130;55.670;37.596;2023-04-24T08:13:17;0.40;;;0.40;;
51080;SDS011;37130;55.670;37.596;2023-04-24T08:15:44;0.30;;;0.30;;
51080;SDS011;37130;55.670;37.596;2023-04-24T08:18:12;0.17;;;0.17;;
51080;SDS011;37130;55.670;37.596;2023-04-24T08:20:40;0.03;;;0.03;;
51080;SDS011;37130;55.670;37.596;2023-04-24T08:23:08;0.10;;;0.10;;
51080;SDS011;37130;55.670;37.596;2023-04-24T08:25:35;0.10;;;0.10;;
51080;SDS011;37130;55.670;37.596;2023-04-24T08:28:03;0.10;;;0.10;;
51080;SDS011;37130;55.670;37.596;2023-04-24T08:30:33;0.10;;;0.10;;
51080;SDS011;37130;55.670;37.596;2023-04-24T08:33:01;0.10;;;0.10;;
51080;SDS011;37130;55.670;37.596;2023-04-24T08:35:29;0.10;;;0.10;;
51080;SDS011;37130;55.670;37.596;2023-04-24T08:37:57;0.10;;;0.10;;
51080;SDS011;37130;55.670;37.596;2023-04-24T08:40:27;0.10;;;0.10;;
51080;SDS011;37130;55.670;37.596;2023-04-24T08:42:58;0.00;;;0.00;;
51080;SDS011;37130;55.670;37.596;2023-04-24T08:45:26;0.00;;;0.00;;
51080;SDS011;37130;55.670;37.596;2023-04-24T08:47:54;0.00;;;0.00;;
51080;SDS011;37130;55.670;37.596;2023-04-24T08:50:22;0.00;;;0.00;;
51080;SDS011;37130;55.670;37.596;2023-04-24T08:52:50;0.00;;;0.00;;
51080;SDS011;37130;55.670;37.596;2023-04-24T08:55:20;0.00;;;0.00;;
51080;SDS011;37130;55.670;37.596;2023-04-24T08:57:50;0.00;;;0.00;;
51080;SDS011;37130;55.670;37.596;2023-04-24T09:00:20;0.00;;;0.00;;
51080;SDS011;37130;55.670;37.596;2023-04-24T09:02:49;0.00;;;0.00;;
51080;SDS011;37130;55.670;37.596;2023-04-24T09:05:17;0.00;;;0.00;;
51080;SDS011;37130;55.670;37.596;2023-04-24T09:07:49;0.00;;;0.00;;
51080;SDS011;37130;55.670;37.596;2023-04-24T09:10:23;0.00;;;0.00;;
51080;SDS011;37130;55.670;37.596;2023-04-24T09:12:52;0.00;;;0.00;;
51080;SDS011;37130;55.670;37.596;2023-04-24T09:15:19;0.00;;;0.00;;
51080;SDS011;37130;55.670;37.596;2023-04-24T09:17:47;0.00;;;0.00;;
51080;SDS011;37130;55.670;37.596;2023-04-24T09:20:15;0.00;;;0.00;;
51080;SDS011;37130;55.670;37.596;2023-04-24T09:22:43;0.00;;;0.00;;
51080;SDS011;37130;55.670;37.596;2023-04-24T09:25:12;0.00;;;0.00;;
51080;SDS011;37130;55.670;37.596;2023-04-24T09:27:43;0.00;;;0.00;;
51080;SDS011;37130;55.670;37.596;2023-04-24T09:30:12;0.00;;;0.00;;
51080;SDS011;37130;55.670;37.596;2023-04-24T09:32:40;0.00;;;0.00;;
51080;SDS011;37130;55.670;37.596;2023-04-24T09:35:12;0.00;;;0.00;;
51080;SDS011;37130;55.670;37.596;2023-04-24T09:37:43;0.00;;;0.00;;
51080;SDS011;37130;55.670;37.596;2023-04-24T09:40:14;0.00;;;0.00;;
51080;SDS011;37130;55.670;37.596;2023-04-24T09:42:44;0.00;;;0.00;;
51080;SDS011;37130;55.670;37.596;2023-04-24T09:45:28;0.00;;;0.00;;
51080;SDS011;37130;55.670;37.596;2023-04-24T09:48:02;0.00;;;0.00;;
51080;SDS011;37130;55.670;37.596;2023-04-24T09:50:30;0.00;;;0.00;;
51080;SDS011;37130;55.670;37.596;2023-04-24T09:53:05;0.00;;;0.00;;
51080;SDS011;37130;55.670;37.596;2023-04-24T09:55:39;0.00;;;0.00;;
51080;SDS011;37130;55.670;37.596;2023-04-24T09:58:12;0.00;;;0.00;;
51080;SDS011;37130;55.670;37.596;2023-04-24T10:00:40;0.00;;;0.00;;
51080;SDS011;37130;55.670;37.596;2023-04-24T10:03:08;0.00;;;0.00;;
51080;SDS011;37130;55.670;37.596;2023-04-24T10:05:36;0.00;;;0.00;;
51080;SDS011;37130;55.670;37.596;2023-04-24T10:08:08;0.00;;;0.00;;
51080;SDS011;37130;55.670;37.596;2023-04-24T10:10:40;0.00;;;0.00;;
51080;SDS011;37130;55.670;37.596;2023-04-24T10:13:09;0.00;;;0.00;;
51080;SDS011;37130;55.670;37.596;2023-04-24T10:15:38;0.00;;;0.00;;
51080;SDS011;37130;55.670;37.596;2023-04-24T10:18:07;0.00;;;0.00;;
51080;SDS011;37130;55.670;37.596;2023-04-24T10:20:36;0.00;;;0.00;;
51080;SDS011;37130;55.670;37.596;2023-04-24T10:23:06;0.00;;;0.00;;
51080;SDS011;37130;55.670;37.596;2023-04-24T10:25:34;0.00;;;0.00;;
51080;SDS011;37130;55.670;37.596;2023-04-24T10:28:04;0.00;;;0.00;;
51080;SDS011;37130;55.670;37.596;2023-04-24T10:30:35;0.00;;;0.00;;
51080;SDS011;37130;55.670;37.596;2023-04-24T10:33:03;0.00;;;0.00;;
51080;SDS011;37130;55.670;37.596;2023-04-24T10:35:31;0.00;;;0.00;;
51080;SDS011;37130;55.670;37.596;2023-04-24T10:38:05;0.00;;;0.00;;
51080;SDS011;37130;55.670;37.596;2023-04-24T10:40:36;0.00;;;0.00;;
51080;SDS011;37130;55.670;37.596;2023-04-24T10:43:04;0.00;;;0.00;;
51080;SDS011;37130;55.670;37.596;2023-04-24T10:45:35;0.00;;;0.00;;
51080;SDS011;37130;55.670;37.596;2023-04-24T10:48:03;0.00;;;0.00;;
51080;SDS011;37130;55.670;37.596;2023-04-24T10:50:43;0.00;;;0.00;;
51080;SDS011;37130;55.670;37.596;2023-04-24T10:53:22;0.00;;;0.00;;
51080;SDS011;37130;55.670;37.596;2023-04-24T10:55:57;0.00;;;0.00;;
51080;SDS011;37130;55.670;37.596;2023-04-24T10:58:42;0.00;;;0.00;;
51080;SDS011;37130;55.670;37.596;2023-04-24T11:01:28;0.00;;;0.00;;
51080;SDS011;37130;55.670;37.596;2023-04-24T11:03:58;0.00;;;0.00;;
51080;SDS011;37130;55.670;37.596;2023-04-24T11:06:29;0.00;;;0.00;;
51080;SDS011;37130;55.670;37.596;2023-04-24T11:09:09;0.00;;;0.00;;
51080;SDS011;37130;55.670;37.596;2023-04-24T11:11:44;0.00;;;0.00;;
51080;SDS011;37130;55.670;37.596;2023-04-24T11:14:14;0.00;;;0.00;;
51080;SDS011;37130;55.670;37.596;2023-04-24T11:16:46;0.00;;;0.00;;
51080;SDS011;37130;55.670;37.596;2023-04-24T11:19:26;0.00;;;0.00;;
51080;SDS011;37130;55.670;37.596;2023-04-24T11:21:56;0.00;;;0.00;;
51080;SDS011;37130;55.670;37.596;2023-04-24T11:27:13;0.00;;;0.00;;
51080;SDS011;37130;55.670;37.596;2023-04-24T11:29:44;0.00;;;0.00;;
51080;SDS011;37130;55.670;37.596;2023-04-24T11:32:28;0.00;;;0.00;;
51080;SDS011;37130;55.670;37.596;2023-04-24T11:35:00;0.00;;;0.00;;
51080;SDS011;37130;55.670;37.596;2023-04-24T11:37:42;0.00;;;0.00;;
51080;SDS011;37130;55.670;37.596;2023-04-24T11:40:24;0.00;;;0.00;;
51080;SDS011;37130;55.670;37.596;2023-04-24T11:42:53;0.00;;;0.00;;
51080;SDS011;37130;55.670;37.596;2023-04-24T11:45:23;0.00;;;0.00;;
51080;SDS011;37130;55.670;37.596;2023-04-24T11:47:52;0.00;;;0.00;;
51080;SDS011;37130;55.670;37.596;2023-04-24T11:50:24;0.00;;;0.00;;
51080;SDS011;37130;55.670;37.596;2023-04-24T11:52:53;0.00;;;0.00;;
51080;SDS011;37130;55.670;37.596;2023-04-24T11:57:53;0.00;;;0.00;;
51080;SDS011;37130;55.670;37.596;2023-04-24T12:00:24;0.00;;;0.00;;
51080;SDS011;37130;55.670;37.596;2023-04-24T12:03:04;0.00;;;0.00;;
51080;SDS011;37130;55.670;37.596;2023-04-24T12:05:36;0.00;;;0.00;;
51080;SDS011;37130;55.670;37.596;2023-04-24T12:08:05;0.00;;;0.00;;
51080;SDS011;37130;55.670;37.596;2023-04-24T12:10:32;0.00;;;0.00;;
51080;SDS011;37130;55.670;37.596;2023-04-24T12:13:01;0.00;;;0.00;;
51080;SDS011;37130;55.670;37.596;2023-04-24T12:15:29;0.00;;;0.00;;
51080;SDS011;37130;55.670;37.596;2023-04-24T12:17:58;0.00;;;0.00;;
51080;SDS011;37130;55.670;37.596;2023-04-24T12:20:27;0.00;;;0.00;;
51080;SDS011;37130;55.670;37.596;2023-04-24T12:22:56;0.00;;;0.00;;
51080;SDS011;37130;55.670;37.596;2023-04-24T12:25:26;0.00;;;0.00;;
51080;SDS011;37130;55.670;37.596;2023-04-24T12:27:57;0.00;;;0.00;;
51080;SDS011;37130;55.670;37.596;2023-04-24T12:30:42;0.00;;;0.00;;
51080;SDS011;37130;55.670;37.596;2023-04-24T12:33:11;0.00;;;0.00;;
51080;SDS011;37130;55.670;37.596;2023-04-24T12:35:40;0.00;;;0.00;;
51080;SDS011;37130;55.670;37.596;2023-04-24T12:38:09;0.00;;;0.00;;
51080;SDS011;37130;55.670;37.596;2023-04-24T12:40:40;0.00;;;0.00;;
51080;SDS011;37130;55.670;37.596;2023-04-24T12:43:15;0.00;;;0.00;;
51080;SDS011;37130;55.670;37.596;2023-04-24T12:45:47;0.00;;;0.00;;
51080;SDS011;37130;55.670;37.596;2023-04-24T12:48:15;0.00;;;0.00;;
51080;SDS011;37130;55.670;37.596;2023-04-24T12:50:43;0.00;;;0.00;;
51080;SDS011;37130;55.670;37.596;2023-04-24T12:53:13;0.00;;;0.00;;
51080;SDS011;37130;55.670;37.596;2023-04-24T12:55:41;0.00;;;0.00;;
51080;SDS011;37130;55.670;37.596;2023-04-24T12:58:08;0.00;;;0.00;;
51080;SDS011;37130;55.670;37.596;2023-04-24T13:00:36;0.00;;;0.00;;
51080;SDS011;37130;55.670;37.596;2023-04-24T13:03:06;0.00;;;0.00;;
51080;SDS011;37130;55.670;37.596;2023-04-24T13:05:33;0.00;;;0.00;;
51080;SDS011;37130;55.670;37.596;2023-04-24T13:08:02;0.00;;;0.00;;
51080;SDS011;37130;55.670;37.596;2023-04-24T13:10:29;0.00;;;0.00;;
51080;SDS011;37130;55.670;37.596;2023-04-24T13:12:57;0.00;;;0.00;;
51080;SDS011;37130;55.670;37.596;2023-04-24T13:15:25;0.00;;;0.00;;
51080;SDS011;37130;55.670;37.596;2023-04-24T13:17:53;0.00;;;0.00;;
51080;SDS011;37130;55.670;37.596;2023-04-24T13:20:20;0.00;;;0.00;;
51080;SDS011;37130;55.670;37.596;2023-04-24T13:22:49;0.00;;;0.00;;
51080;SDS011;37130;55.670;37.596;2023-04-24T13:25:17;0.00;;;0.00;;
51080;SDS011;37130;55.670;37.596;2023-04-24T13:27:45;0.00;;;0.00;;
51080;SDS011;37130;55.670;37.596;2023-04-24T13:30:13;0.00;;;0.00;;
51080;SDS011;37130;55.670;37.596;2023-04-24T13:32:41;0.00;;;0.00;;
51080;SDS011;37130;55.670;37.596;2023-04-24T13:35:08;0.00;;;0.00;;
51080;SDS011;37130;55.670;37.596;2023-04-24T13:37:36;0.00;;;0.00;;
51080;SDS011;37130;55.670;37.596;2023-04-24T13:40:04;0.00;;;0.00;;
51080;SDS011;37130;55.670;37.596;2023-04-24T13:42:33;0.00;;;0.00;;
51080;SDS011;37130;55.670;37.596;2023-04-24T13:45:01;0.00;;;0.00;;
51080;SDS011;37130;55.670;37.596;2023-04-24T13:47:48;0.00;;;0.00;;
51080;SDS011;37130;55.670;37.596;2023-04-24T13:50:19;0.00;;;0.00;;
51080;SDS011;37130;55.670;37.596;2023-04-24T13:52:47;0.00;;;0.00;;
51080;SDS011;37130;55.670;37.596;2023-04-24T13:55:14;0.00;;;0.00;;
51080;SDS011;37130;55.670;37.596;2023-04-24T13:57:42;0.00;;;0.00;;
51080;SDS011;37130;55.670;37.596;2023-04-24T14:00:10;0.00;;;0.00;;
51080;SDS011;37130;55.670;37.596;2023-04-24T14:02:38;0.00;;;0.00;;
51080;SDS011;37130;55.670;37.596;2023-04-24T14:05:06;0.00;;;0.00;;
51080;SDS011;37130;55.670;37.596;2023-04-24T14:07:34;0.00;;;0.00;;
51080;SDS011;37130;55.670;37.596;2023-04-24T14:10:01;0.00;;;0.00;;
51080;SDS011;37130;55.670;37.596;2023-04-24T14:12:29;0.00;;;0.00;;
51080;SDS011;37130;55.670;37.596;2023-04-24T14:14:57;0.00;;;0.00;;
51080;SDS011;37130;55.670;37.596;2023-04-24T14:17:25;0.00;;;0.00;;
51080;SDS011;37130;55.670;37.596;2023-04-24T14:19:52;0.00;;;0.00;;
51080;SDS011;37130;55.670;37.596;2023-04-24T14:22:23;0.00;;;0.00;;
51080;SDS011;37130;55.670;37.596;2023-04-24T14:24:50;0.00;;;0.00;;
51080;SDS011;37130;55.670;37.596;2023-04-24T14:27:18;0.00;;;0.00;;
51080;SDS011;37130;55.670;37.596;2023-04-24T14:29:46;0.00;;;0.00;;
51080;SDS011;37130;55.670;37.596;2023-04-24T14:32:13;0.00;;;0.00;;
51080;SDS011;37130;55.670;37.596;2023-04-24T14:34:42;0.00;;;0.00;;
51080;SDS011;37130;55.670;37.596;2023-04-24T14:37:09;0.00;;;0.00;;
51080;SDS011;37130;55.670;37.596;2023-04-24T14:39:37;0.00;;;0.00;;
51080;SDS011;37130;55.670;37.596;2023-04-24T14:42:04;0.00;;;0.00;;
51080;SDS011;37130;55.670;37.596;2023-04-24T14:44:32;0.00;;;0.00;;
51080;SDS011;37130;55.670;37.596;2023-04-24T14:47:00;0.00;;;0.00;;
51080;SDS011;37130;55.670;37.596;2023-04-24T14:49:27;0.00;;;0.00;;
51080;SDS011;37130;55.670;37.596;2023-04-24T14:51:55;0.00;;;0.00;;
51080;SDS011;37130;55.670;37.596;2023-04-24T14:54:23;0.00;;;0.00;;
51080;SDS011;37130;55.670;37.596;2023-04-24T14:56:50;0.00;;;0.00;;
51080;SDS011;37130;55.670;37.596;2023-04-24T14:59:18;0.00;;;0.00;;
51080;SDS011;37130;55.670;37.596;2023-04-24T15:01:46;0.00;;;0.00;;
51080;SDS011;37130;55.670;37.596;2023-04-24T15:04:14;0.00;;;0.00;;
51080;SDS011;37130;55.670;37.596;2023-04-24T15:06:43;0.00;;;0.00;;
51080;SDS011;37130;55.670;37.596;2023-04-24T15:09:10;0.00;;;0.00;;
51080;SDS011;37130;55.670;37.596;2023-04-24T15:11:38;0.00;;;0.00;;
51080;SDS011;37130;55.670;37.596;2023-04-24T15:14:05;0.00;;;0.00;;
51080;SDS011;37130;55.670;37.596;2023-04-24T15:16:33;0.00;;;0.00;;
51080;SDS011;37130;55.670;37.596;2023-04-24T15:19:01;0.00;;;0.00;;
51080;SDS011;37130;55.670;37.596;2023-04-24T15:21:28;0.00;;;0.00;;
51080;SDS011;37130;55.670;37.596;2023-04-24T15:23:55;0.00;;;0.00;;
51080;SDS011;37130;55.670;37.596;2023-04-24T15:26:23;0.00;;;0.00;;
51080;SDS011;37130;55.670;37.596;2023-04-24T15:28:51;0.00;;;0.00;;
51080;SDS011;37130;55.670;37.596;2023-04-24T15:31:19;0.00;;;0.00;;
51080;SDS011;37130;55.670;37.596;2023-04-24T15:33:47;0.00;;;0.00;;
51080;SDS011;37130;55.670;37.596;2023-04-24T15:36:16;0.00;;;0.00;;
51080;SDS011;37130;55.670;37.596;2023-04-24T15:38:45;0.00;;;0.00;;
51080;SDS011;37130;55.670;37.596;2023-04-24T15:41:12;0.00;;;0.00;;
51080;SDS011;37130;55.670;37.596;2023-04-24T15:43:40;0.00;;;0.00;;
51080;SDS011;37130;55.670;37.596;2023-04-24T15:46:08;0.00;;;0.00;;
51080;SDS011;37130;55.670;37.596;2023-04-24T15:48:37;0.00;;;0.00;;
51080;SDS011;37130;55.670;37.596;2023-04-24T15:51:07;0.00;;;0.00;;
51080;SDS011;37130;55.670;37.596;2023-04-24T15:53:34;0.00;;;0.00;;
51080;SDS011;37130;55.670;37.596;2023-04-24T15:56:03;0.00;;;0.00;;
51080;SDS011;37130;55.670;37.596;2023-04-24T15:58:30;0.00;;;0.00;;
51080;SDS011;37130;55.670;37.596;2023-04-24T16:00:58;0.00;;;0.00;;
51080;SDS011;37130;55.670;37.596;2023-04-24T16:03:26;0.00;;;0.00;;
51080;SDS011;37130;55.670;37.596;2023-04-24T16:05:54;0.00;;;0.00;;
51080;SDS011;37130;55.670;37.596;2023-04-24T16:08:21;0.00;;;0.00;;
51080;SDS011;37130;55.670;37.596;2023-04-24T16:10:49;0.00;;;0.00;;
51080;SDS011;37130;55.670;37.596;2023-04-24T16:13:18;0.00;;;0.00;;
51080;SDS011;37130;55.670;37.596;2023-04-24T16:15:46;0.00;;;0.00;;
51080;SDS011;37130;55.670;37.596;2023-04-24T16:18:14;0.00;;;0.00;;
51080;SDS011;37130;55.670;37.596;2023-04-24T16:20:43;0.00;;;0.00;;
51080;SDS011;37130;55.670;37.596;2023-04-24T16:23:10;0.00;;;0.00;;
51080;SDS011;37130;55.670;37.596;2023-04-24T16:25:38;0.00;;;0.00;;
51080;SDS011;37130;55.670;37.596;2023-04-24T16:28:05;0.00;;;0.00;;
51080;SDS011;37130;55.670;37.596;2023-04-24T16:30:33;0.00;;;0.00;;
51080;SDS011;37130;55.670;37.596;2023-04-24T16:33:02;0.00;;;0.00;;
51080;SDS011;37130;55.670;37.596;2023-04-24T16:35:34;0.00;;;0.00;;
51080;SDS011;37130;55.670;37.596;2023-04-24T16:38:01;0.10;;;0.00;;
51080;SDS011;37130;55.670;37.596;2023-04-24T16:40:30;0.00;;;0.00;;
51080;SDS011;37130;55.670;37.596;2023-04-24T16:42:58;0.00;;;0.00;;
51080;SDS011;37130;55.670;37.596;2023-04-24T16:45:25;0.00;;;0.00;;
51080;SDS011;37130;55.670;37.596;2023-04-24T16:47:53;0.00;;;0.00;;
51080;SDS011;37130;55.670;37.596;2023-04-24T16:50:21;0.00;;;0.00;;
51080;SDS011;37130;55.670;37.596;2023-04-24T16:52:49;0.00;;;0.00;;
51080;SDS011;37130;55.670;37.596;2023-04-24T16:55:16;0.00;;;0.00;;
51080;SDS011;37130;55.670;37.596;2023-04-24T16:57:44;0.00;;;0.00;;
51080;SDS011;37130;55.670;37.596;2023-04-24T17:00:12;0.00;;;0.00;;
51080;SDS011;37130;55.670;37.596;2023-04-24T17:02:39;0.00;;;0.00;;
51080;SDS011;37130;55.670;37.596;2023-04-24T17:05:08;0.00;;;0.00;;
51080;SDS011;37130;55.670;37.596;2023-04-24T17:07:35;0.00;;;0.00;;
51080;SDS011;37130;55.670;37.596;2023-04-24T17:10:03;0.00;;;0.00;;
51080;SDS011;37130;55.670;37.596;2023-04-24T17:12:31;0.00;;;0.00;;
51080;SDS011;37130;55.670;37.596;2023-04-24T17:14:59;0.00;;;0.00;;
51080;SDS011;37130;55.670;37.596;2023-04-24T17:17:28;0.00;;;0.00;;
51080;SDS011;37130;55.670;37.596;2023-04-24T17:19:56;0.00;;;0.00;;
51080;SDS011;37130;55.670;37.596;2023-04-24T17:22:28;0.00;;;0.00;;
51080;SDS011;37130;55.670;37.596;2023-04-24T17:24:57;0.00;;;0.00;;
51080;SDS011;37130;55.670;37.596;2023-04-24T17:27:24;0.00;;;0.00;;
51080;SDS011;37130;55.670;37.596;2023-04-24T17:29:52;0.00;;;0.00;;
51080;SDS011;37130;55.670;37.596;2023-04-24T17:32:20;0.00;;;0.00;;
51080;SDS011;37130;55.670;37.596;2023-04-24T17:34:48;0.00;;;0.00;;
51080;SDS011;37130;55.670;37.596;2023-04-24T17:37:15;0.00;;;0.00;;
51080;SDS011;37130;55.670;37.596;2023-04-24T17:39:46;0.00;;;0.00;;
51080;SDS011;37130;55.670;37.596;2023-04-24T17:42:13;0.00;;;0.00;;
51080;SDS011;37130;55.670;37.596;2023-04-24T17:44:40;0.00;;;0.00;;
51080;SDS011;37130;55.670;37.596;2023-04-24T17:47:08;0.00;;;0.00;;
51080;SDS011;37130;55.670;37.596;2023-04-24T17:49:35;0.00;;;0.00;;
51080;SDS011;37130;55.670;37.596;2023-04-24T17:52:04;0.00;;;0.00;;
51080;SDS011;37130;55.670;37.596;2023-04-24T17:54:32;0.00;;;0.00;;
51080;SDS011;37130;55.670;37.596;2023-04-24T17:57:00;0.00;;;0.00;;
51080;SDS011;37130;55.670;37.596;2023-04-24T17:59:28;0.00;;;0.00;;
51080;SDS011;37130;55.670;37.596;2023-04-24T18:01:55;0.00;;;0.00;;
51080;SDS011;37130;55.670;37.596;2023-04-24T18:04:24;0.00;;;0.00;;
51080;SDS011;37130;55.670;37.596;2023-04-24T18:06:52;0.00;;;0.00;;
51080;SDS011;37130;55.670;37.596;2023-04-24T18:09:19;0.00;;;0.00;;
51080;SDS011;37130;55.670;37.596;2023-04-24T18:11:47;0.00;;;0.00;;
51080;SDS011;37130;55.670;37.596;2023-04-24T18:14:16;0.00;;;0.00;;
51080;SDS011;37130;55.670;37.596;2023-04-24T18:16:44;0.00;;;0.00;;
51080;SDS011;37130;55.670;37.596;2023-04-24T18:19:11;0.00;;;0.00;;
51080;SDS011;37130;55.670;37.596;2023-04-24T18:21:39;0.00;;;0.00;;
51080;SDS011;37130;55.670;37.596;2023-04-24T18:24:06;0.00;;;0.00;;
51080;SDS011;37130;55.670;37.596;2023-04-24T18:26:34;0.00;;;0.00;;
51080;SDS011;37130;55.670;37.596;2023-04-24T18:29:01;0.00;;;0.00;;
51080;SDS011;37130;55.670;37.596;2023-04-24T18:31:29;0.00;;;0.00;;
51080;SDS011;37130;55.670;37.596;2023-04-24T18:33:58;0.00;;;0.00;;
51080;SDS011;37130;55.670;37.596;2023-04-24T18:36:25;0.00;;;0.00;;
51080;SDS011;37130;55.670;37.596;2023-04-24T18:38:53;0.00;;;0.00;;
51080;SDS011;37130;55.670;37.596;2023-04-24T18:41:21;0.00;;;0.00;;
51080;SDS011;37130;55.670;37.596;2023-04-24T18:43:49;0.00;;;0.00;;
51080;SDS011;37130;55.670;37.596;2023-04-24T18:46:18;0.00;;;0.00;;
51080;SDS011;37130;55.670;37.596;2023-04-24T18:48:45;0.00;;;0.00;;
51080;SDS011;37130;55.670;37.596;2023-04-24T18:51:13;0.00;;;0.00;;
51080;SDS011;37130;55.670;37.596;2023-04-24T18:53:40;0.00;;;0.00;;
51080;SDS011;37130;55.670;37.596;2023-04-24T18:56:08;0.00;;;0.00;;
51080;SDS011;37130;55.670;37.596;2023-04-24T18:58:35;0.00;;;0.00;;
51080;SDS011;37130;55.670;37.596;2023-04-24T19:01:03;0.00;;;0.00;;
51080;SDS011;37130;55.670;37.596;2023-04-24T19:03:33;0.00;;;0.00;;
51080;SDS011;37130;55.670;37.596;2023-04-24T19:06:01;0.00;;;0.00;;
51080;SDS011;37130;55.670;37.596;2023-04-24T19:08:30;0.00;;;0.00;;
51080;SDS011;37130;55.670;37.596;2023-04-24T19:10:57;0.00;;;0.00;;
51080;SDS011;37130;55.670;37.596;2023-04-24T19:13:25;0.00;;;0.00;;
51080;SDS011;37130;55.670;37.596;2023-04-24T19:15:53;0.00;;;0.00;;
51080;SDS011;37130;55.670;37.596;2023-04-24T19:18:20;0.00;;;0.00;;
51080;SDS011;37130;55.670;37.596;2023-04-24T19:20:48;0.00;;;0.00;;
51080;SDS011;37130;55.670;37.596;2023-04-24T19:23:16;0.00;;;0.00;;
51080;SDS011;37130;55.670;37.596;2023-04-24T19:25:43;0.00;;;0.00;;
51080;SDS011;37130;55.670;37.596;2023-04-24T19:28:11;0.00;;;0.00;;
51080;SDS011;37130;55.670;37.596;2023-04-24T19:30:38;0.00;;;0.00;;
51080;SDS011;37130;55.670;37.596;2023-04-24T19:33:06;0.00;;;0.00;;
51080;SDS011;37130;55.670;37.596;2023-04-24T19:35:33;0.00;;;0.00;;
51080;SDS011;37130;55.670;37.596;2023-04-24T19:38:02;0.00;;;0.00;;
51080;SDS011;37130;55.670;37.596;2023-04-24T19:40:29;0.00;;;0.00;;